Time;durP1;ratioP1;P1;durP2;ratioP2;P2;SDS_P1;SDS_P2;PMS_P1;PMS_P2;Temp;Humidity;BMP_temperature;BMP_pressure;BME280_temperature;BME280_humidity;BME280_pressure;Samples;Min_cycle;Max_cycle;Signal;HPM_P1;HPM_P2
2022/04/10 00:02:01;;;;;;;2.88;1.40;;;;;;;;;;6179852;23;20005;-49
2022/04/10 00:04:27;;;;;;;1.60;1.27;;;;;;;;;;6205656;23;20035;-47
2022/04/10 00:06:53;;;;;;;2.03;1.33;;;;;;;;;;6178597;23;20000;-47
2022/04/10 00:09:19;;;;;;;1.90;1.30;;;;;;;;;;6205977;23;20005;-50
2022/04/10 00:11:46;;;;;;;3.38;1.67;;;;;;;;;;6205293;23;20401;-51
2022/04/10 00:14:13;;;;;;;3.08;1.95;;;;;;;;;;6204721;23;20010;-47
2022/04/10 00:16:39;;;;;;;2.65;1.70;;;;;;;;;;6205211;23;20442;-49
2022/04/10 00:19:05;;;;;;;2.75;1.42;;;;;;;;;;6178201;23;20530;-50
2022/04/10 00:21:32;;;;;;;2.35;1.73;;;;;;;;;;6205718;23;20013;-48
2022/04/10 00:23:58;;;;;;;2.42;1.50;;;;;;;;;;6205312;23;20019;-51
2022/04/10 00:26:24;;;;;;;1.30;1.10;;;;;;;;;;6178293;23;20040;-47
2022/04/10 00:28:51;;;;;;;1.63;1.10;;;;;;;;;;6177871;23;20012;-48
2022/04/10 00:31:18;;;;;;;1.75;1.20;;;;;;;;;;6205347;23;20023;-51
2022/04/10 00:33:44;;;;;;;1.15;0.98;;;;;;;;;;6207669;23;20012;-47
2022/04/10 00:36:10;;;;;;;1.25;0.98;;;;;;;;;;6207200;23;20008;-49
2022/04/10 00:38:36;;;;;;;1.48;1.13;;;;;;;;;;6208095;23;20620;-52
2022/04/10 00:41:02;;;;;;;1.08;0.93;;;;;;;;;;6207458;23;20012;-50
2022/04/10 00:43:32;;;;;;;1.75;1.05;;;;;;;;;;6207670;23;20051;-49
2022/04/10 00:46:02;;;;;;;2.53;1.13;;;;;;;;;;6207655;23;20011;-51
2022/04/10 00:48:28;;;;;;;1.70;1.20;;;;;;;;;;6207704;23;20005;-49
2022/04/10 00:53:40;;;;;;;1.40;1.02;;;;;;;;;;6207294;23;20019;-49
2022/04/10 00:56:06;;;;;;;1.67;1.17;;;;;;;;;;6207480;23;20004;-51
2022/04/10 00:58:33;;;;;;;2.42;1.23;;;;;;;;;;6207358;23;20369;-48
2022/04/10 01:00:59;;;;;;;1.42;1.10;;;;;;;;;;6207587;23;20000;-51
2022/04/10 01:03:25;;;;;;;1.20;1.10;;;;;;;;;;6207580;23;20004;-48
2022/04/10 01:05:51;;;;;;;1.42;1.15;;;;;;;;;;6207403;23;20007;-50
2022/04/10 01:08:17;;;;;;;1.45;1.05;;;;;;;;;;6208596;23;20000;-50
2022/04/10 01:10:43;;;;;;;3.03;1.40;;;;;;;;;;6207152;23;20001;-50
2022/04/10 01:13:09;;;;;;;2.45;1.58;;;;;;;;;;6207478;23;20008;-51
2022/04/10 01:15:36;;;;;;;3.45;2.05;;;;;;;;;;6207634;23;20011;-51
2022/04/10 01:18:03;;;;;;;4.05;2.40;;;;;;;;;;6207542;23;20012;-51
2022/04/10 01:20:29;;;;;;;2.65;1.92;;;;;;;;;;6207820;23;20322;-52
2022/04/10 01:22:55;;;;;;;2.72;1.70;;;;;;;;;;6207285;23;20393;-48
2022/04/10 01:25:22;;;;;;;2.65;1.90;;;;;;;;;;6207668;23;20184;-50
2022/04/10 01:27:48;;;;;;;1.90;1.30;;;;;;;;;;6208033;23;20011;-49
2022/04/10 01:30:15;;;;;;;2.08;1.50;;;;;;;;;;6208117;23;20005;-51
2022/04/10 01:32:41;;;;;;;2.65;1.67;;;;;;;;;;6207760;23;20426;-50
2022/04/10 01:35:07;;;;;;;1.92;1.00;;;;;;;;;;6207592;23;20457;-50
2022/04/10 01:37:36;;;;;;;1.17;0.95;;;;;;;;;;6207454;23;20075;-50
2022/04/10 01:40:02;;;;;;;1.38;1.00;;;;;;;;;;6207649;23;20066;-48
2022/04/10 01:42:28;;;;;;;1.40;1.15;;;;;;;;;;6207656;23;20020;-48
2022/04/10 01:44:54;;;;;;;2.00;1.10;;;;;;;;;;6207921;23;20004;-49
2022/04/10 01:47:20;;;;;;;1.15;1.05;;;;;;;;;;6207862;23;20024;-50
2022/04/10 01:49:46;;;;;;;1.58;0.98;;;;;;;;;;6209986;23;20001;-49
2022/04/10 01:52:12;;;;;;;1.40;0.93;;;;;;;;;;6209609;23;20011;-50
2022/04/10 01:54:39;;;;;;;1.88;1.23;;;;;;;;;;6209535;23;20001;-51
2022/04/10 01:57:09;;;;;;;2.10;1.23;;;;;;;;;;6208962;23;20001;-48
2022/04/10 01:59:35;;;;;;;2.60;1.33;;;;;;;;;;6209714;23;20000;-51
2022/04/10 02:02:02;;;;;;;1.70;1.10;;;;;;;;;;6209260;23;20005;-48
2022/04/10 02:04:28;;;;;;;1.70;1.05;;;;;;;;;;6208777;23;20023;-50
2022/04/10 02:06:54;;;;;;;1.17;0.95;;;;;;;;;;6209252;23;20342;-52
2022/04/10 02:09:20;;;;;;;1.35;0.80;;;;;;;;;;6209645;23;20488;-51
2022/04/10 02:11:46;;;;;;;1.75;1.20;;;;;;;;;;6210166;23;20509;-48
2022/04/10 02:14:13;;;;;;;2.72;1.50;;;;;;;;;;6208101;23;20287;-49
2022/04/10 02:16:39;;;;;;;3.95;1.95;;;;;;;;;;6209326;23;20333;-50
2022/04/10 02:19:05;;;;;;;3.92;2.20;;;;;;;;;;6207860;23;20012;-47
2022/04/10 02:21:31;;;;;;;3.70;2.10;;;;;;;;;;6209344;23;20072;-51
2022/04/10 02:23:58;;;;;;;2.25;1.60;;;;;;;;;;6208648;23;20680;-51
2022/04/10 02:26:24;;;;;;;3.40;1.70;;;;;;;;;;6209104;23;19996;-48
2022/04/10 02:28:50;;;;;;;2.10;1.70;;;;;;;;;;6209139;23;20047;-51
2022/04/10 02:31:16;;;;;;;1.83;1.00;;;;;;;;;;6208451;23;20565;-50
2022/04/10 02:33:42;;;;;;;2.25;1.38;;;;;;;;;;6208783;23;20374;-51
2022/04/10 02:36:08;;;;;;;1.90;1.30;;;;;;;;;;6208732;23;20008;-49
2022/04/10 02:38:34;;;;;;;1.60;1.50;;;;;;;;;;6208334;23;20009;-49
2022/04/10 02:41:00;;;;;;;1.75;1.20;;;;;;;;;;6208687;23;20008;-47
2022/04/10 02:43:26;;;;;;;1.27;1.17;;;;;;;;;;6208061;23;20004;-51
2022/04/10 02:45:53;;;;;;;1.25;1.10;;;;;;;;;;6208402;23;20008;-50
2022/04/10 02:48:19;;;;;;;1.30;1.20;;;;;;;;;;6208997;23;20004;-50
2022/04/10 02:50:45;;;;;;;2.13;1.20;;;;;;;;;;6209660;23;20418;-52
2022/04/10 02:53:11;;;;;;;2.17;1.30;;;;;;;;;;6208149;23;20307;-51
2022/04/10 02:55:37;;;;;;;1.20;1.10;;;;;;;;;;6209210;23;20635;-49
2022/04/10 02:58:03;;;;;;;1.35;1.00;;;;;;;;;;6208518;23;20361;-49
2022/04/10 03:00:29;;;;;;;1.38;1.00;;;;;;;;;;6207769;23;20414;-50
2022/04/10 03:02:56;;;;;;;1.30;1.13;;;;;;;;;;6208559;23;20012;-50
2022/04/10 03:05:22;;;;;;;1.15;1.05;;;;;;;;;;6208700;23;20496;-52
2022/04/10 03:07:48;;;;;;;1.40;1.30;;;;;;;;;;6209294;23;20028;-50
2022/04/10 03:10:14;;;;;;;1.25;1.15;;;;;;;;;;6209570;23;20090;-50
2022/04/10 03:12:40;;;;;;;1.13;1.02;;;;;;;;;;6208753;23;20453;-51
2022/04/10 03:15:06;;;;;;;2.35;1.40;;;;;;;;;;6208119;23;20619;-49
2022/04/10 03:17:32;;;;;;;0.90;0.90;;;;;;;;;;6206821;23;20092;-49
2022/04/10 03:19:58;;;;;;;1.00;0.90;;;;;;;;;;6208327;23;20027;-51
2022/04/10 03:22:24;;;;;;;1.48;1.17;;;;;;;;;;6207860;23;20572;-49
2022/04/10 03:24:50;;;;;;;0.95;0.85;;;;;;;;;;6207483;23;20028;-50
2022/04/10 03:27:16;;;;;;;1.40;1.20;;;;;;;;;;6208380;23;19997;-50
2022/04/10 03:29:42;;;;;;;0.82;0.77;;;;;;;;;;6206995;23;20809;-51
2022/04/10 03:32:09;;;;;;;1.55;1.13;;;;;;;;;;6208002;23;20342;-51
2022/04/10 03:34:35;;;;;;;1.95;1.30;;;;;;;;;;6207683;23;20469;-50
2022/04/10 03:37:01;;;;;;;1.92;1.13;;;;;;;;;;6207519;23;20442;-50
2022/04/10 03:39:27;;;;;;;1.42;1.30;;;;;;;;;;6207721;23;20393;-48
2022/04/10 03:41:53;;;;;;;2.28;1.50;;;;;;;;;;6206934;23;20032;-50
2022/04/10 03:44:19;;;;;;;2.55;1.50;;;;;;;;;;6207590;23;20032;-49
2022/04/10 03:46:45;;;;;;;2.53;1.63;;;;;;;;;;6208476;23;20546;-50
2022/04/10 03:49:11;;;;;;;2.50;1.77;;;;;;;;;;6207700;23;20027;-49
2022/04/10 03:51:37;;;;;;;2.78;1.75;;;;;;;;;;6207608;23;20614;-51
2022/04/10 03:54:03;;;;;;;1.75;1.52;;;;;;;;;;6180960;23;20671;-51
2022/04/10 03:56:29;;;;;;;1.27;1.17;;;;;;;;;;6206804;23;20008;-51
2022/04/10 03:58:56;;;;;;;3.10;1.60;;;;;;;;;;6207461;23;20005;-51
2022/04/10 04:01:22;;;;;;;2.28;1.63;;;;;;;;;;6207850;23;20091;-51
2022/04/10 04:03:48;;;;;;;2.40;1.55;;;;;;;;;;6206789;23;20095;-49
2022/04/10 04:06:14;;;;;;;2.00;1.80;;;;;;;;;;6208593;23;20024;-49
2022/04/10 04:08:41;;;;;;;3.33;2.17;;;;;;;;;;6206668;23;20051;-49
2022/04/10 04:11:08;;;;;;;3.72;2.33;;;;;;;;;;6207077;23;20004;-51
2022/04/10 04:13:38;;;;;;;3.63;2.55;;;;;;;;;;6207103;23;20032;-52
2022/04/10 04:16:05;;;;;;;2.85;2.42;;;;;;;;;;6207392;23;20009;-51
2022/04/10 04:18:31;;;;;;;3.65;2.55;;;;;;;;;;6206185;23;20004;-48
2022/04/10 04:20:57;;;;;;;3.53;2.20;;;;;;;;;;6207647;23;20010;-50
2022/04/10 04:23:23;;;;;;;2.70;2.30;;;;;;;;;;6207602;23;20001;-49
2022/04/10 04:25:49;;;;;;;3.67;2.78;;;;;;;;;;6179708;23;20430;-51
2022/04/10 04:28:15;;;;;;;3.17;2.42;;;;;;;;;;6208185;23;20391;-48
2022/04/10 04:30:41;;;;;;;3.90;2.30;;;;;;;;;;6207044;23;20008;-48
2022/04/10 04:33:07;;;;;;;2.60;2.22;;;;;;;;;;6207412;23;20005;-46
2022/04/10 04:35:34;;;;;;;2.85;2.13;;;;;;;;;;6207061;23;20032;-51
2022/04/10 04:38:00;;;;;;;4.60;2.50;;;;;;;;;;6206999;23;20334;-46
2022/04/10 04:40:26;;;;;;;3.33;2.40;;;;;;;;;;6207139;23;20084;-51
2022/04/10 04:42:52;;;;;;;3.28;2.60;;;;;;;;;;6206305;23;20015;-50
2022/04/10 04:45:18;;;;;;;3.78;2.55;;;;;;;;;;6207053;23;20012;-46
2022/04/10 04:47:45;;;;;;;4.20;2.17;;;;;;;;;;6207614;23;20004;-54
2022/04/10 04:50:11;;;;;;;4.03;2.50;;;;;;;;;;6206023;23;20024;-49
2022/04/10 04:52:37;;;;;;;3.40;2.60;;;;;;;;;;6205822;23;20120;-50
2022/04/10 04:55:04;;;;;;;4.70;2.92;;;;;;;;;;6205631;23;20339;-48
2022/04/10 04:57:30;;;;;;;3.72;2.83;;;;;;;;;;6205262;23;20008;-50
2022/04/10 04:59:56;;;;;;;5.70;3.20;;;;;;;;;;6205968;23;20004;-50
2022/04/10 05:02:22;;;;;;;4.63;3.05;;;;;;;;;;6205972;23;20004;-47
2022/04/10 05:04:48;;;;;;;4.95;3.00;;;;;;;;;;6205632;23;20631;-48
2022/04/10 05:07:14;;;;;;;3.38;2.72;;;;;;;;;;6206787;23;20005;-51
2022/04/10 05:09:40;;;;;;;3.33;2.60;;;;;;;;;;6205372;23;20374;-50
2022/04/10 05:12:07;;;;;;;4.15;3.13;;;;;;;;;;6205695;23;20530;-46
2022/04/10 05:14:33;;;;;;;3.97;2.70;;;;;;;;;;6205772;23;20043;-49
2022/04/10 05:16:59;;;;;;;4.00;3.13;;;;;;;;;;6205336;23;20051;-50
2022/04/10 05:19:25;;;;;;;3.45;2.90;;;;;;;;;;6205939;23;20453;-52
2022/04/10 05:21:51;;;;;;;3.70;3.08;;;;;;;;;;6207099;23;20004;-52
2022/04/10 05:24:17;;;;;;;4.43;3.00;;;;;;;;;;6209601;23;20028;-51
2022/04/10 05:26:43;;;;;;;5.45;3.92;;;;;;;;;;6209427;23;20008;-50
2022/04/10 05:29:09;;;;;;;4.07;3.20;;;;;;;;;;6209015;23;20080;-50
2022/04/10 05:31:35;;;;;;;4.85;3.05;;;;;;;;;;6209099;23;20334;-51
2022/04/10 05:34:02;;;;;;;4.82;3.40;;;;;;;;;;6209487;23;20015;-50
2022/04/10 05:36:28;;;;;;;4.82;3.10;;;;;;;;;;6208547;23;20008;-49
2022/04/10 05:38:54;;;;;;;6.22;4.00;;;;;;;;;;6209113;23;20004;-52
2022/04/10 05:41:20;;;;;;;7.03;4.32;;;;;;;;;;6208615;23;20001;-49
2022/04/10 05:43:46;;;;;;;7.25;4.32;;;;;;;;;;6209467;23;20008;-48
2022/04/10 05:46:13;;;;;;;5.60;4.18;;;;;;;;;;6208857;23;20033;-50
2022/04/10 05:48:39;;;;;;;5.40;3.45;;;;;;;;;;6208712;23;20028;-49
2022/04/10 05:51:04;;;;;;;5.20;3.67;;;;;;;;;;6209668;23;20465;-48
2022/04/10 05:53:31;;;;;;;5.10;3.33;;;;;;;;;;6209155;23;20032;-50
2022/04/10 05:55:56;;;;;;;5.20;3.35;;;;;;;;;;6209432;23;20005;-50
2022/04/10 05:58:23;;;;;;;5.05;3.78;;;;;;;;;;6208930;23;20488;-47
2022/04/10 06:00:50;;;;;;;3.97;3.08;;;;;;;;;;6209238;23;20078;-52
2022/04/10 06:03:16;;;;;;;4.72;3.42;;;;;;;;;;6209591;23;20009;-51
2022/04/10 06:05:42;;;;;;;5.40;3.65;;;;;;;;;;6208815;23;20416;-48
2022/04/10 06:08:08;;;;;;;4.82;3.50;;;;;;;;;;6209030;23;20826;-49
2022/04/10 06:10:34;;;;;;;3.72;3.10;;;;;;;;;;6208651;23;20086;-49
2022/04/10 06:13:06;;;;;;;5.65;3.60;;;;;;;;;;6208874;23;20500;-51
2022/04/10 06:15:32;;;;;;;5.28;3.55;;;;;;;;;;6208791;23;20080;-51
2022/04/10 06:17:58;;;;;;;5.03;3.13;;;;;;;;;;6208346;23;20478;-50
2022/04/10 06:20:24;;;;;;;4.45;3.17;;;;;;;;;;6208553;23;20008;-46
2022/04/10 06:22:50;;;;;;;3.63;2.67;;;;;;;;;;6208525;23;20000;-50
2022/04/10 06:25:16;;;;;;;4.63;3.28;;;;;;;;;;6209704;23;20315;-50
2022/04/10 06:27:43;;;;;;;3.78;3.03;;;;;;;;;;6181567;23;20441;-51
2022/04/10 06:30:09;;;;;;;4.38;3.45;;;;;;;;;;6208937;23;20480;-51
2022/04/10 06:32:35;;;;;;;4.18;3.22;;;;;;;;;;6208369;23;20007;-51
2022/04/10 06:35:01;;;;;;;5.13;3.80;;;;;;;;;;6208242;23;19997;-48
2022/04/10 06:37:27;;;;;;;5.35;3.50;;;;;;;;;;6208288;23;20338;-48
2022/04/10 06:39:53;;;;;;;3.85;2.90;;;;;;;;;;6208112;23;20353;-50
2022/04/10 06:42:19;;;;;;;4.72;3.50;;;;;;;;;;6207933;23;20008;-50
2022/04/10 06:44:45;;;;;;;4.32;3.15;;;;;;;;;;6209111;23;20004;-48
2022/04/10 06:47:11;;;;;;;4.10;3.25;;;;;;;;;;6208783;23;19996;-49
2022/04/10 06:49:37;;;;;;;4.55;3.15;;;;;;;;;;6208246;23;20070;-51
2022/04/10 06:52:03;;;;;;;3.80;3.05;;;;;;;;;;6208077;23;20039;-49
2022/04/10 06:54:30;;;;;;;6.07;3.83;;;;;;;;;;6207692;23;20028;-50
2022/04/10 06:56:56;;;;;;;6.35;4.25;;;;;;;;;;6208352;23;20012;-52
2022/04/10 06:59:22;;;;;;;6.25;4.25;;;;;;;;;;6208534;23;20008;-49
2022/04/10 07:01:48;;;;;;;4.65;3.50;;;;;;;;;;6208032;23;20514;-49
2022/04/10 07:04:14;;;;;;;5.38;4.00;;;;;;;;;;6208606;23;20058;-50
2022/04/10 07:06:40;;;;;;;4.75;3.72;;;;;;;;;;6207987;23;20007;-46
2022/04/10 07:09:06;;;;;;;6.53;4.40;;;;;;;;;;6208207;23;20020;-48
2022/04/10 07:11:32;;;;;;;6.60;4.63;;;;;;;;;;6207456;23;20005;-50
2022/04/10 07:13:59;;;;;;;5.75;4.25;;;;;;;;;;6208287;23;20084;-50
2022/04/10 07:16:25;;;;;;;5.43;4.00;;;;;;;;;;6208436;23;20063;-52
2022/04/10 07:18:51;;;;;;;6.30;4.28;;;;;;;;;;6207628;23;20015;-46
2022/04/10 07:23:41;;;;;;;5.55;3.85;;;;;;;;;;6208632;23;20074;-49
2022/04/10 07:24:03;;;;;;;5.55;3.85;;;;;;;;;;6208057;23;20020;-50
2022/04/10 07:26:29;;;;;;;3.90;2.83;;;;;;;;;;6207398;23;19997;-51
2022/04/10 07:28:55;;;;;;;4.40;3.38;;;;;;;;;;6208333;23;20004;-50
2022/04/10 07:31:22;;;;;;;5.72;3.33;;;;;;;;;;6207436;23;20474;-46
2022/04/10 07:33:48;;;;;;;5.13;3.30;;;;;;;;;;6208502;23;20083;-47
2022/04/10 07:36:14;;;;;;;3.80;2.70;;;;;;;;;;6208116;23;20337;-50
2022/04/10 07:38:40;;;;;;;3.85;2.70;;;;;;;;;;6207389;23;20003;-51
2022/04/10 07:41:06;;;;;;;2.63;2.33;;;;;;;;;;6208083;23;20434;-49
2022/04/10 07:43:32;;;;;;;3.53;2.20;;;;;;;;;;6207473;23;20012;-48
2022/04/10 07:48:43;;;;;;;2.22;2.00;;;;;;;;;;6206193;23;20095;-51
2022/04/10 07:51:09;;;;;;;2.22;1.80;;;;;;;;;;6208466;23;20359;-52
2022/04/10 07:53:35;;;;;;;3.03;1.90;;;;;;;;;;6206324;23;20000;-49
2022/04/10 07:56:01;;;;;;;2.63;1.98;;;;;;;;;;6208296;23;20086;-49
2022/04/10 07:58:27;;;;;;;2.17;1.60;;;;;;;;;;6208253;23;20009;-51
2022/04/10 08:00:53;;;;;;;1.80;1.38;;;;;;;;;;6208355;23;20008;-49
2022/04/10 08:03:19;;;;;;;2.05;1.45;;;;;;;;;;6209057;23;20355;-49
2022/04/10 08:05:46;;;;;;;1.67;1.45;;;;;;;;;;6209129;23;20004;-49
2022/04/10 08:08:13;;;;;;;1.77;1.42;;;;;;;;;;6208964;23;20446;-51
2022/04/10 08:10:39;;;;;;;1.85;1.40;;;;;;;;;;6208086;23;20015;-51
2022/04/10 08:13:06;;;;;;;2.15;1.70;;;;;;;;;;6208213;23;20008;-51
2022/04/10 08:15:32;;;;;;;1.73;1.45;;;;;;;;;;6208451;23;20012;-50
2022/04/10 08:17:58;;;;;;;1.60;1.50;;;;;;;;;;6208585;23;20139;-48
2022/04/10 08:20:24;;;;;;;1.55;1.45;;;;;;;;;;6208923;23;20015;-48
2022/04/10 08:22:53;;;;;;;1.92;1.25;;;;;;;;;;6207926;23;20591;-52
2022/04/10 08:25:23;;;;;;;1.40;1.20;;;;;;;;;;6208152;23;20075;-52
2022/04/10 08:27:50;;;;;;;2.55;1.88;;;;;;;;;;6207601;23;20480;-49
2022/04/10 08:30:16;;;;;;;2.35;1.50;;;;;;;;;;6209428;23;19997;-49
2022/04/10 08:32:43;;;;;;;1.98;1.73;;;;;;;;;;6208846;23;20355;-48
2022/04/10 08:35:10;;;;;;;1.42;1.33;;;;;;;;;;6208787;23;20028;-51
2022/04/10 08:37:37;;;;;;;2.50;1.67;;;;;;;;;;6207710;23;20062;-49
2022/04/10 08:40:03;;;;;;;1.85;1.50;;;;;;;;;;6208620;23;20079;-50
2022/04/10 08:42:29;;;;;;;2.47;1.80;;;;;;;;;;6208028;23;20075;-50
2022/04/10 08:44:56;;;;;;;1.70;1.35;;;;;;;;;;6208575;23;20484;-50
2022/04/10 08:47:22;;;;;;;1.90;1.50;;;;;;;;;;6208092;23;20004;-47
2022/04/10 08:49:49;;;;;;;3.20;1.83;;;;;;;;;;6207635;23;20001;-49
2022/04/10 08:52:19;;;;;;;1.83;1.48;;;;;;;;;;6209367;23;20001;-51
2022/04/10 08:54:45;;;;;;;2.03;1.50;;;;;;;;;;6208977;23;20334;-49
2022/04/10 08:57:12;;;;;;;2.22;1.48;;;;;;;;;;6207598;23;20039;-50
2022/04/10 08:59:38;;;;;;;2.00;1.60;;;;;;;;;;6207688;23;20008;-49
2022/04/10 09:02:04;;;;;;;1.30;1.20;;;;;;;;;;6207645;23;20031;-48
2022/04/10 09:04:33;;;;;;;2.08;1.30;;;;;;;;;;6206746;23;20529;-47
2022/04/10 09:07:04;;;;;;;1.27;1.17;;;;;;;;;;6207772;23;20008;-51
2022/04/10 09:09:34;;;;;;;1.52;1.23;;;;;;;;;;6207175;23;20004;-47
2022/04/10 09:12:00;;;;;;;2.00;1.30;;;;;;;;;;6207404;23;20001;-51
2022/04/10 09:14:28;;;;;;;1.10;1.00;;;;;;;;;;6207888;23;20075;-48
2022/04/10 09:17:10;;;;;;;2.17;1.33;;;;;;;;;;6208164;23;20012;-50
2022/04/10 09:19:36;;;;;;;2.70;1.73;;;;;;;;;;6207317;23;20005;-50
2022/04/10 09:22:21;;;;;;;2.47;1.55;;;;;;;;;;6208441;23;20015;-51
2022/04/10 09:25:04;;;;;;;1.73;1.30;;;;;;;;;;6207899;23;20001;-50
2022/04/10 09:27:31;;;;;;;2.25;1.65;;;;;;;;;;6207360;23;20011;-52
2022/04/10 09:29:58;;;;;;;1.77;1.27;;;;;;;;;;6207902;23;20001;-49
2022/04/10 09:32:24;;;;;;;3.17;1.92;;;;;;;;;;6181574;23;20007;-48
2022/04/10 09:34:57;;;;;;;2.95;1.42;;;;;;;;;;6208058;23;20003;-50
2022/04/10 09:37:23;;;;;;;3.70;2.08;;;;;;;;;;6207768;23;20005;-49
2022/04/10 09:39:49;;;;;;;2.60;1.48;;;;;;;;;;6207517;23;20020;-47
2022/04/10 09:42:15;;;;;;;2.42;1.48;;;;;;;;;;6208811;23;20003;-52
2022/04/10 09:44:41;;;;;;;2.90;1.60;;;;;;;;;;6207937;23;20047;-48
2022/04/10 09:47:08;;;;;;;1.88;1.30;;;;;;;;;;6207289;23;20307;-52
2022/04/10 09:49:35;;;;;;;1.60;1.27;;;;;;;;;;6207685;23;19997;-51
2022/04/10 09:52:02;;;;;;;1.30;1.00;;;;;;;;;;6207642;23;20015;-50
2022/04/10 09:54:34;;;;;;;1.73;1.00;;;;;;;;;;6207613;23;20008;-49
2022/04/10 09:57:04;;;;;;;1.00;0.90;;;;;;;;;;6206818;23;20071;-50
2022/04/10 09:59:33;;;;;;;1.45;0.88;;;;;;;;;;6207516;23;20028;-51
2022/04/10 10:01:59;;;;;;;0.80;0.70;;;;;;;;;;6206458;23;20020;-52
2022/04/10 10:04:26;;;;;;;1.13;1.02;;;;;;;;;;6206891;23;20009;-51
2022/04/10 10:06:52;;;;;;;1.55;1.20;;;;;;;;;;6207134;23;20509;-48
2022/04/10 10:09:19;;;;;;;1.17;0.90;;;;;;;;;;6209162;23;19997;-51
2022/04/10 10:11:45;;;;;;;2.17;1.08;;;;;;;;;;6209943;23;20373;-50
2022/04/10 10:14:12;;;;;;;1.30;0.93;;;;;;;;;;6210057;23;20015;-52
2022/04/10 10:16:39;;;;;;;0.88;0.80;;;;;;;;;;6209165;23;21138;-49
2022/04/10 10:19:05;;;;;;;0.88;0.75;;;;;;;;;;6209444;23;20481;-51
2022/04/10 10:21:31;;;;;;;0.80;0.80;;;;;;;;;;6209278;23;20005;-51
2022/04/10 10:23:58;;;;;;;0.93;0.70;;;;;;;;;;6209669;23;20004;-50
2022/04/10 10:26:43;;;;;;;0.82;0.80;;;;;;;;;;6209040;23;20071;-49
2022/04/10 10:29:17;;;;;;;3.47;1.30;;;;;;;;;;6209584;23;20005;-51
2022/04/10 10:31:47;;;;;;;1.48;1.10;;;;;;;;;;6209975;23;20028;-47
2022/04/10 10:34:14;;;;;;;1.38;0.90;;;;;;;;;;6209520;23;20011;-50
2022/04/10 10:36:40;;;;;;;1.02;0.93;;;;;;;;;;6208902;23;20058;-49
2022/04/10 10:39:07;;;;;;;0.50;0.50;;;;;;;;;;6209402;23;20000;-48
2022/04/10 10:41:34;;;;;;;0.80;0.73;;;;;;;;;;6207564;23;20054;-51
2022/04/10 10:44:15;;;;;;;0.57;0.57;;;;;;;;;;6208330;23;20088;-50
2022/04/10 10:46:56;;;;;;;0.57;0.57;;;;;;;;;;6209283;23;20013;-51
2022/04/10 10:49:22;;;;;;;0.60;0.60;;;;;;;;;;6209387;23;20062;-50
2022/04/10 10:51:52;;;;;;;0.60;0.50;;;;;;;;;;6209500;23;20083;-48
2022/04/10 10:54:26;;;;;;;0.63;0.50;;;;;;;;;;6209408;23;20008;-50
2022/04/10 10:56:53;;;;;;;0.60;0.60;;;;;;;;;;6209326;23;20032;-51
2022/04/10 10:59:21;;;;;;;0.57;0.50;;;;;;;;;;6208761;23;20119;-47
2022/04/10 11:02:06;;;;;;;1.17;0.80;;;;;;;;;;6208747;23;20465;-49
2022/04/10 11:04:42;;;;;;;0.65;0.65;;;;;;;;;;6208520;23;20017;-52
2022/04/10 11:07:12;;;;;;;0.52;0.50;;;;;;;;;;6208721;23;20083;-52
2022/04/10 11:09:48;;;;;;;0.30;0.30;;;;;;;;;;6208330;23;20001;-52
2022/04/10 11:12:14;;;;;;;0.50;0.43;;;;;;;;;;6208236;23;20031;-50
2022/04/10 11:14:45;;;;;;;0.52;0.40;;;;;;;;;;6207655;23;20020;-51
2022/04/10 11:17:15;;;;;;;0.50;0.50;;;;;;;;;;6207939;23;20075;-50
2022/04/10 11:19:46;;;;;;;0.30;0.30;;;;;;;;;;6207603;23;20009;-49
2022/04/10 11:22:19;;;;;;;0.60;0.40;;;;;;;;;;6208118;23;20016;-52
2022/04/10 11:24:45;;;;;;;0.40;0.40;;;;;;;;;;6208073;23;20080;-51
2022/04/10 11:27:13;;;;;;;0.77;0.60;;;;;;;;;;6207616;23;20366;-51
2022/04/10 11:29:42;;;;;;;0.30;0.30;;;;;;;;;;6207421;23;20012;-51
2022/04/10 11:32:16;;;;;;;0.40;0.40;;;;;;;;;;6207805;23;20892;-51
2022/04/10 11:34:42;;;;;;;0.68;0.55;;;;;;;;;;6206243;23;20009;-52
2022/04/10 11:37:16;;;;;;;0.85;0.57;;;;;;;;;;6206732;23;20497;-52
2022/04/10 11:39:43;;;;;;;0.50;0.50;;;;;;;;;;6206291;23;20015;-50
2022/04/10 11:42:09;;;;;;;0.35;0.35;;;;;;;;;;6206654;23;20008;-52
2022/04/10 11:44:35;;;;;;;0.65;0.65;;;;;;;;;;6205791;23;20009;-51
2022/04/10 11:47:05;;;;;;;0.93;0.70;;;;;;;;;;6205646;23;20055;-49
2022/04/10 11:49:31;;;;;;;0.40;0.40;;;;;;;;;;6206661;23;20054;-53
2022/04/10 11:51:59;;;;;;;0.73;0.50;;;;;;;;;;6206514;23;20079;-52
2022/04/10 11:54:35;;;;;;;0.50;0.35;;;;;;;;;;6206579;23;20062;-53
2022/04/10 11:57:05;;;;;;;0.32;0.32;;;;;;;;;;6206042;23;20007;-50
2022/04/10 11:59:42;;;;;;;0.50;0.40;;;;;;;;;;6206558;23;20001;-50
2022/04/10 12:02:09;;;;;;;0.38;0.38;;;;;;;;;;6180824;23;20649;-49
2022/04/10 12:04:36;;;;;;;0.30;0.30;;;;;;;;;;6205658;23;20142;-49
2022/04/10 12:07:21;;;;;;;0.43;0.43;;;;;;;;;;6206051;23;20338;-47
2022/04/10 12:09:52;;;;;;;0.35;0.35;;;;;;;;;;6206117;23;20072;-50
2022/04/10 12:12:20;;;;;;;0.55;0.50;;;;;;;;;;6205126;23;19996;-48
2022/04/10 12:14:49;;;;;;;0.50;0.40;;;;;;;;;;6206956;23;20008;-47
2022/04/10 12:17:19;;;;;;;0.35;0.30;;;;;;;;;;6206039;23;20032;-48
2022/04/10 12:19:45;;;;;;;0.63;0.60;;;;;;;;;;6206422;23;20008;-50
2022/04/10 12:22:12;;;;;;;0.60;0.50;;;;;;;;;;6206511;23;20039;-48
2022/04/10 12:24:38;;;;;;;0.50;0.50;;;;;;;;;;6205955;23;20001;-50
2022/04/10 12:27:06;;;;;;;0.60;0.57;;;;;;;;;;6206604;23;20012;-48
2022/04/10 12:29:34;;;;;;;0.70;0.70;;;;;;;;;;6205583;23;20358;-47
2022/04/10 12:32:00;;;;;;;0.60;0.50;;;;;;;;;;6178639;23;20005;-45
2022/04/10 12:34:33;;;;;;;0.80;0.80;;;;;;;;;;6179069;23;20001;-46
2022/04/10 12:37:06;;;;;;;2.10;1.17;;;;;;;;;;6206407;23;20393;-49
2022/04/10 12:39:32;;;;;;;1.90;1.17;;;;;;;;;;6205197;23;20008;-50
2022/04/10 12:41:59;;;;;;;1.30;0.82;;;;;;;;;;6205439;23;20059;-49
2022/04/10 12:44:26;;;;;;;1.15;0.70;;;;;;;;;;6205765;23;20004;-49
2022/04/10 12:46:52;;;;;;;2.17;1.40;;;;;;;;;;6205383;23;20009;-49
2022/04/10 12:49:18;;;;;;;2.28;1.40;;;;;;;;;;6206080;23;20674;-47
2022/04/10 12:51:54;;;;;;;1.33;0.93;;;;;;;;;;6206909;23;20004;-48
2022/04/10 12:54:39;;;;;;;1.23;0.82;;;;;;;;;;6205399;23;20009;-50
2022/04/10 12:57:05;;;;;;;;;;;;;;;;;;6206607;23;20076;-48
2022/04/10 12:59:40;;;;;;;1.88;1.10;;;;;;;;;;6206303;23;20018;-47
2022/04/10 13:02:11;;;;;;;1.30;0.80;;;;;;;;;;6205836;23;20009;-52
2022/04/10 13:04:37;;;;;;;1.00;0.75;;;;;;;;;;6205343;23;20039;-50
2022/04/10 13:07:03;;;;;;;0.70;0.70;;;;;;;;;;6206091;23;19997;-50
2022/04/10 13:09:30;;;;;;;1.42;0.98;;;;;;;;;;6205372;23;20005;-51
2022/04/10 13:11:56;;;;;;;1.55;0.80;;;;;;;;;;6205786;23;20001;-48
2022/04/10 13:14:22;;;;;;;1.35;0.85;;;;;;;;;;6205775;23;20081;-47
2022/04/10 13:16:49;;;;;;;0.68;0.60;;;;;;;;;;6206211;23;20446;-48
2022/04/10 13:19:16;;;;;;;0.60;0.60;;;;;;;;;;6206250;23;20373;-51
2022/04/10 13:21:43;;;;;;;0.80;0.60;;;;;;;;;;6205325;23;20039;-50
2022/04/10 13:24:10;;;;;;;0.90;0.70;;;;;;;;;;6206146;23;20033;-49
2022/04/10 13:26:37;;;;;;;0.70;0.70;;;;;;;;;;6205472;23;20001;-50
2022/04/10 13:29:04;;;;;;;1.25;0.80;;;;;;;;;;6205876;23;19996;-50
2022/04/10 13:31:31;;;;;;;2.80;1.10;;;;;;;;;;6205958;23;19996;-48
2022/04/10 13:33:57;;;;;;;1.92;1.10;;;;;;;;;;6205883;23;20100;-49
2022/04/10 13:36:23;;;;;;;1.50;0.90;;;;;;;;;;6206101;23;20098;-50
2022/04/10 13:38:49;;;;;;;1.38;1.15;;;;;;;;;;6205082;23;20405;-49
2022/04/10 13:41:15;;;;;;;1.77;0.70;;;;;;;;;;6206532;23;20001;-50
2022/04/10 13:43:42;;;;;;;1.25;0.90;;;;;;;;;;6205492;23;20022;-48
2022/04/10 13:46:08;;;;;;;1.67;1.00;;;;;;;;;;6207645;23;20303;-49
2022/04/10 13:48:34;;;;;;;2.03;1.00;;;;;;;;;;6180256;23;20708;-50
2022/04/10 13:51:01;;;;;;;1.10;0.82;;;;;;;;;;6207613;23;20346;-50
2022/04/10 13:53:27;;;;;;;0.95;0.68;;;;;;;;;;6206660;23;20015;-47
2022/04/10 13:55:54;;;;;;;0.57;0.50;;;;;;;;;;6181155;23;20040;-48
2022/04/10 13:58:20;;;;;;;0.60;0.60;;;;;;;;;;6181048;23;20004;-49
2022/04/10 14:00:46;;;;;;;1.15;0.73;;;;;;;;;;6207503;23;20024;-49
2022/04/10 14:03:12;;;;;;;0.52;0.50;;;;;;;;;;6207729;23;20032;-50
2022/04/10 14:05:38;;;;;;;1.00;0.60;;;;;;;;;;6206736;23;20012;-50
2022/04/10 14:08:05;;;;;;;0.57;0.43;;;;;;;;;;6206618;23;20011;-49
2022/04/10 14:10:31;;;;;;;0.60;0.60;;;;;;;;;;6180116;23;20004;-48
2022/04/10 14:12:57;;;;;;;0.80;0.60;;;;;;;;;;6207253;23;20009;-48
2022/04/10 14:15:23;;;;;;;1.10;0.70;;;;;;;;;;6207176;23;20008;-51
2022/04/10 14:17:56;;;;;;;0.52;0.52;;;;;;;;;;6180802;23;20008;-47
2022/04/10 14:20:22;;;;;;;0.57;0.57;;;;;;;;;;6207606;23;20019;-51
2022/04/10 14:22:48;;;;;;;0.50;0.40;;;;;;;;;;6180616;23;20015;-51
2022/04/10 14:25:14;;;;;;;0.50;0.50;;;;;;;;;;6207866;23;20394;-48
2022/04/10 14:27:40;;;;;;;0.82;0.60;;;;;;;;;;6206258;23;20004;-50
2022/04/10 14:30:07;;;;;;;0.60;0.50;;;;;;;;;;6180575;23;20095;-50
2022/04/10 14:32:35;;;;;;;0.65;0.57;;;;;;;;;;6180698;23;20544;-50
2022/04/10 14:35:01;;;;;;;0.55;0.55;;;;;;;;;;6205309;23;20004;-50
2022/04/10 14:37:27;;;;;;;0.77;0.68;;;;;;;;;;6204876;23;20071;-51
2022/04/10 14:39:53;;;;;;;0.47;0.47;;;;;;;;;;6205876;23;20327;-52
2022/04/10 14:42:19;;;;;;;0.88;0.45;;;;;;;;;;6205901;23;20004;-47
2022/04/10 14:44:46;;;;;;;0.50;0.50;;;;;;;;;;6205474;23;20083;-51
2022/04/10 14:47:12;;;;;;;0.80;0.60;;;;;;;;;;6205295;23;20016;-49
2022/04/10 14:49:38;;;;;;;0.75;0.68;;;;;;;;;;6205263;23;20036;-49